Aktualne dane pomiarowe

Uwaga, wersja testowa! Automatyczne pobieranie danych za pomocą narzędzi lub skryptów to umożliwiających jest zabronione.

Dane meteo z obszaru Polski uzyskane na podstawie depesz SYNOP pobieranych co godzinę z NWS. Najedź myszką na symbol przedstawiony w tabeli, aby uzyskać informacje co do jego znaczenia. Prosimy pamiętać, że to testowa wersja strony, która jeszcze nie jest ukończona. Stworzono również jest krótki FAQ dotyczący korzystania z tej podstrony Anomalie temperatury w chwili obecnej odniesione są do okresu referencyjnego 1951-2016. Okres ten będzie później zmieniony na 1981-2010. Kliknij ikonę aby pobrać plik CSV. Kliknij ikonę aby wygenerować mapę synoptyczną dla danego terminu.

Wybierz Datę:    

        

Kłodzko (12520)

Dane terminowe dla wybranej stacji. Kliknij datę, aby otrzymać dane z tego terminu dla wszystkich stacji.

TemperaturaZachmurzenieWiatrCiśnienieOpadyPogoda
 Data t td wb tx tn tg rh  Nt Nl Cl Cm Ch ws wd g1 g2 wx mslp ppp ch 24h 12h t ww ww w1 w2  
2019-07-04 23:00:00 10.3 7.0 8.2--- 8045.0wx-wxwx1wx---1019.3 976.3 -0.7---------
2019-07-04 22:00:00 10.6 6.7 8.2--- 7740.0wx-wx1wx--11019.6 976.7 -0.3---------
2019-07-04 21:00:00 11.3 7.4 8.9--- 7740.0wx-wx3wx--31019.5 976.7 -0.3---------
2019-07-04 20:00:00 14.6 6.4 9.9--- 5850.0wx-wx1wx--11019.3 977.0 -0.2---------
2019-07-04 19:00:00 18.1 5.0 11.0--- 4250.0wx-wx2wx--21018.8 977.0 -0.8---------
2019-07-04 18:00:00 19.0 6.5 12.1 22.2 10.8- 4450.0wx-wx3wx-831018.7 977.0 -1.1- 0.012------
2019-07-04 17:00:00 21.2 6.3 13.0--- 3850.0wx-wx3wx--31018.6 977.2 -1.3---------
2019-07-04 16:00:00 21.9 6.1 13.2--- 3650.0wxwxwxwx3wx---1019.1 977.8 -1.2---------
2019-07-04 15:00:00 22.1 6.3 13.4--- 3650.0wxwxwxwx4wx-841019.4 978.1 -1.6---------
2019-07-04 14:00:00 21.6 5.9 13.0--- 3650.0wxwxwxwx4wx-841019.9 978.5 -1.7---------
2019-07-04 13:00:00 21.6 6.7 13.3--- 3850.0wxwxwxwx4wx--41020.4 979.0 -1.6---------
2019-07-04 12:00:00 20.7 6.6 12.9--- 4050.0wxwxwxwx3wx-931021.3 979.7 -1.3- 0.06------
2019-07-04 11:00:00 19.8 6.5 12.4--- 4250.0wxwxwx4wx--41021.9 980.2 -0.8---------
2019-07-04 10:00:00 19.1 5.9 11.9--- 4250.0wxwxwx3wx--31022.4 980.6 -0.5---------
2019-07-04 09:00:00 17.2 7.3 11.6--- 5250.0wxwxwxwx2---21023.1 981.0 0.0---------
2019-07-04 08:00:00 16.3 7.0 11.0--- 5450.0wxwxwx1wx--11023.3 981.0 0.1---------
2019-07-04 07:00:00 13.1 6.9 9.4--- 6650.0wxwxwx1wx---1023.8 981.1 0.4---------
2019-07-04 06:00:00 10.8 7.7 8.8 17.7 5.0 3 8150.0wxwxwxwx1wx--11024.1 981.0 0.4- 0.012----- 12.2
2019-07-04 05:00:00 7.9 6.7 7.1--- 9250.0wx-2wx--21024.4 980.9 0.2---------
2019-07-04 04:00:00 6.2 5.6 5.7--- 9650.0wx-wx1wx--11024.5 980.7 0.2---------
2019-07-04 03:00:00 5.4 4.7 4.9--- 9550.0wx-0---01024.5 980.6 0.2---------
2019-07-04 02:00:00 5.6 4.9 5.1--- 9550.0wx-1wx--11024.6 980.7 0.2---------
2019-07-04 01:00:00 7.8 5.8 6.5--- 8750.0wx-1wx--11024.0 980.5 0.0---------
2019-07-04 00:00:00 7.9 5.4 6.3--- 8450.0wx-1wx--11023.9 980.4 0.2- 0.06------
2019-07-03 23:00:00 7.9 5.9 6.6--- 8750.0wx-1wx--11024.0 980.5 0.6---------
2019-07-03 22:00:00 9.3 6.9 7.7--- 8550.0wx-2wx--21023.8 980.5 1.4---------
2019-07-03 21:00:00 10.3 7.0 8.2--- 8050.0wx-2wx--21023.3 980.2 1.5---------
2019-07-03 20:00:00 14.8 4.8 9.4--- 5150.0wxwxwxwx1wx--11022.3 979.9 1.3---------
2019-07-03 19:00:00 16.2 4.9 10.1--- 4750.0wxwxwxwx2wx--21021.3 979.1 0.6---------
2019-07-03 18:00:00 17.7 5.6 11.1 21.0 13.5- 4550.0wxwxwxwx2wx--21020.6 978.7 0.2- 0.012------
2019-07-03 17:00:00 20.1 4.9 11.9--- 3750.0wxwxwxwx3wx--31020.2 978.6 0.0---------
2019-07-03 16:00:00 20.0 5.6 12.2--- 3950.0wxwxwxwx1wx--11020.1 978.5 -0.4---------
2019-07-03 15:00:00 20.0 6.3 12.4--- 4150.0wxwxwxwx3wx--31020.1 978.5 -0.6---------
2019-07-03 14:00:00 20.6 6.9 13.0--- 4150.0wxwxwxwx3wx--31020.1 978.6 -0.8---------
2019-07-03 13:00:00 20.7 7.3 13.2--- 4250.0wxwxwxwx2wx--21020.4 978.9 -0.6---------
2019-07-03 12:00:00 19.9 6.6 12.5--- 4250.0wxwxwxwx2wx---1020.7 979.1 -0.7---------
2019-07-03 11:00:00 18.3 6.2 11.6--- 4550.0wxwxwx3wx-831021.3 979.4 -0.5---------
2019-07-03 10:00:00 17.8 5.7 11.2--- 4550.0wxwxwx4wx-941021.5 979.5 -0.4---------
2019-07-03 09:00:00 17.3 6.2 11.1--- 4850.0wxwxwx4wx---1021.9 979.8 0.2---------
2019-07-03 08:00:00 16.8 5.1 10.5--- 4650.0wxwxwx4wx-841022.0 979.9 0.6---------
2019-07-03 07:00:00 15.7 6.4 10.5--- 5450.0wxwxwx1wx--11022.2 979.9 0.9---------
2019-07-03 06:00:00 13.5 9.2 10.8 20.0 7.9 6 7550.0wxwxwx1wx--11022.2 979.6 0.7- 0.012----- 10.1
2019-07-03 05:00:00 11.1 9.4 9.9--- 8950.0wxwxwx1wx--11022.3 979.3 0.6---------
2019-07-03 04:00:00 9.9 8.8 9.1--- 9350.0wxwxwx0---01022.1 979.0 0.1---------
2019-07-03 03:00:00 8.6 8.3 8.3--- 9840.0wxwxwx1wx--11022.2 978.9 0.1---------
2019-07-03 02:00:00 8.9 8.4 8.5--- 9730.0wx-wxwx1wx--11022.0 978.7 0.3---------
2019-07-03 01:00:00 9.9 7.5 8.3--- 8540.0wx-1wx--11022.0 978.9 0.9---------
2019-07-03 00:00:00 11.2 8.2 9.3--- 8245.0wx-0---01021.7 978.8 1.3- 0.06------
2.6 ms

 

Print Friendly, PDF & Email